Time;durP1;ratioP1;P1;durP2;ratioP2;P2;SDS_P1;SDS_P2;PMS_P1;PMS_P2;Temp;Humidity;BMP_temperature;BMP_pressure;BME280_temperature;BME280_humidity;BME280_pressure;Samples;Min_cycle;Max_cycle;Signal;HPM_P1;HPM_P2
2022/03/24 00:00:04;;;;;;;61.25;46.53;;;5.80;82.10;;;;;;5007312;28;20076;-43
2022/03/24 00:02:31;;;;;;;70.97;50.25;;;5.70;82.10;;;;;;5011690;28;20033;-45
2022/03/24 00:04:59;;;;;;;68.70;48.95;;;5.80;82.10;;;;;;5012178;28;20062;-43
2022/03/24 00:07:26;;;;;;;70.15;49.90;;;5.70;82.10;;;;;;5011389;28;20029;-46
2022/03/24 00:09:54;;;;;;;71.53;51.30;;;5.70;82.20;;;;;;4995289;28;20103;-45
2022/03/24 00:12:22;;;;;;;70.15;48.88;;;5.70;82.40;;;;;;5011476;28;20117;-44
2022/03/24 00:14:50;;;;;;;69.13;47.05;;;5.60;82.30;;;;;;5011434;28;20475;-44
2022/03/24 00:17:19;;;;;;;69.15;51.53;;;5.60;82.30;;;;;;5012109;28;20050;-44
2022/03/24 00:19:46;;;;;;;66.35;47.65;;;5.50;82.30;;;;;;5012276;28;20034;-43
2022/03/24 00:22:15;;;;;;;69.30;49.15;;;5.50;82.40;;;;;;5011990;28;20029;-44
2022/03/24 00:24:42;;;;;;;71.97;50.85;;;5.50;82.30;;;;;;5012293;28;20471;-44
2022/03/24 00:27:09;;;;;;;73.65;50.55;;;5.40;82.40;;;;;;5012251;28;20033;-45
2022/03/24 00:29:36;;;;;;;64.80;47.22;;;5.40;82.40;;;;;;5011669;28;20172;-43
2022/03/24 00:32:05;;;;;;;69.80;49.25;;;5.40;82.50;;;;;;5011583;28;20088;-43
2022/03/24 00:34:33;;;;;;;73.80;51.78;;;5.40;82.50;;;;;;5011832;28;20375;-45
2022/03/24 00:37:03;;;;;;;69.88;49.22;;;5.40;82.70;;;;;;5012059;28;20014;-44
2022/03/24 00:39:34;;;;;;;72.82;50.58;;;5.40;82.70;;;;;;5011969;28;20359;-44
2022/03/24 00:42:17;;;;;;;72.72;52.30;;;5.30;82.70;;;;;;5010909;28;20041;-43
2022/03/24 00:44:47;;;;;;;67.55;48.65;;;5.30;82.70;;;;;;5008450;28;20462;-44
2022/03/24 00:47:19;;;;;;;71.88;49.33;;;5.30;82.70;;;;;;5011997;28;20046;-43
2022/03/24 00:49:46;;;;;;;72.32;51.00;;;5.30;82.80;;;;;;5011580;28;20348;-46
2022/03/24 00:52:16;;;;;;;71.88;49.58;;;5.20;82.70;;;;;;5011697;28;20038;-43
2022/03/24 00:54:44;;;;;;;;;;;5.20;82.70;;;;;;5011966;28;20038;-43
2022/03/24 00:57:11;;;;;;;71.57;49.00;;;5.20;82.80;;;;;;5010499;28;20004;-45
2022/03/24 00:59:40;;;;;;;68.53;47.80;;;5.10;82.90;;;;;;5010704;28;20048;-45
2022/03/24 01:02:09;;;;;;;69.90;51.33;;;5.10;83.00;;;;;;5010627;28;20032;-45
2022/03/24 01:04:39;;;;;;;;;;;5.10;83.00;;;;;;5011458;28;20030;-44
2022/03/24 01:07:06;;;;;;;74.57;48.35;;;5.10;83.00;;;;;;5010691;28;20399;-43
2022/03/24 01:09:37;;;;;;;67.18;48.15;;;5.10;83.00;;;;;;5009921;28;20034;-44
2022/03/24 01:12:05;;;;;;;71.55;49.30;;;5.00;83.00;;;;;;4993102;28;20033;-44
2022/03/24 01:14:35;;;;;;;71.05;50.90;;;5.00;83.10;;;;;;5010610;28;20089;-44
2022/03/24 01:17:04;;;;;;;74.75;52.40;;;5.00;83.10;;;;;;4993823;28;20458;-44
2022/03/24 01:19:32;;;;;;;70.00;50.25;;;5.00;83.10;;;;;;5011276;28;20033;-43
2022/03/24 01:22:01;;;;;;;72.07;49.03;;;5.00;83.40;;;;;;5011157;28;20481;-43
2022/03/24 01:24:28;;;;;;;75.87;51.60;;;5.00;83.40;;;;;;5010160;28;20027;-43
2022/03/24 01:26:59;;;;;;;71.50;50.92;;;5.00;83.60;;;;;;5011320;28;20121;-43
2022/03/24 01:29:29;;;;;;;68.50;49.90;;;5.00;83.70;;;;;;5010010;28;20030;-45
2022/03/24 01:31:59;;;;;;;65.72;48.17;;;5.00;83.60;;;;;;5009437;28;20462;-44
2022/03/24 01:34:28;;;;;;;74.28;49.47;;;5.00;83.60;;;;;;5010846;28;20048;-43
2022/03/24 01:36:56;;;;;;;70.53;49.55;;;4.90;83.50;;;;;;5010551;28;20054;-43
2022/03/24 01:39:24;;;;;;;68.22;47.53;;;4.90;83.50;;;;;;5008902;28;20034;-45
2022/03/24 01:41:51;;;;;;;70.22;48.25;;;4.80;83.20;;;;;;5010461;28;20430;-44
2022/03/24 01:44:20;;;;;;;67.95;46.17;;;4.80;83.40;;;;;;5007286;28;20034;-43
2022/03/24 01:47:05;;;;;;;69.20;48.70;;;4.80;83.40;;;;;;5009841;28;20048;-44
2022/03/24 01:49:34;;;;;;;71.28;49.38;;;4.80;83.60;;;;;;5008952;28;20430;-44
2022/03/24 01:52:11;;;;;;;72.30;50.10;;;4.70;83.60;;;;;;5010725;28;20041;-43
2022/03/24 01:54:46;;;;;;;68.50;49.20;;;4.70;83.70;;;;;;5010010;28;20044;-44
2022/03/24 01:57:15;;;;;;;69.97;47.28;;;4.60;83.60;;;;;;5010538;28;20033;-43
2022/03/24 01:59:41;;;;;;;67.18;47.70;;;4.70;83.60;;;;;;4992321;28;20140;-43
2022/03/24 02:02:11;;;;;;;70.68;48.03;;;4.60;83.50;;;;;;5010522;28;20022;-44
2022/03/24 02:04:38;;;;;;;70.63;50.08;;;4.60;83.80;;;;;;5009684;28;20030;-44
2022/03/24 02:07:10;;;;;;;73.20;49.90;;;4.60;83.90;;;;;;5009564;28;20412;-44
2022/03/24 02:09:37;;;;;;;70.72;48.10;;;4.60;83.80;;;;;;5010747;28;20113;-43
2022/03/24 02:12:12;;;;;;;73.50;51.45;;;4.60;83.90;;;;;;5009262;28;20063;-43
2022/03/24 02:14:44;;;;;;;68.75;48.55;;;4.50;84.00;;;;;;4976115;28;20049;-43
2022/03/24 02:17:12;;;;;;;71.00;49.00;;;4.50;84.00;;;;;;5008812;28;20049;-44
2022/03/24 02:19:45;;;;;;;67.25;47.55;;;4.50;84.10;;;;;;5010387;28;20125;-44
2022/03/24 02:22:16;;;;;;;72.75;48.92;;;4.50;84.10;;;;;;5009722;28;20029;-43
2022/03/24 02:24:42;;;;;;;67.00;46.33;;;4.50;84.00;;;;;;5010286;28;20106;-43
2022/03/24 02:27:12;;;;;;;70.72;48.38;;;4.50;83.80;;;;;;5009288;28;20536;-43
2022/03/24 02:29:42;;;;;;;69.47;48.25;;;4.50;83.70;;;;;;5010270;28;20037;-44
2022/03/24 02:32:18;;;;;;;71.13;49.03;;;4.40;83.80;;;;;;5010192;28;20121;-43
2022/03/24 02:34:51;;;;;;;65.28;49.03;;;4.40;83.80;;;;;;5008887;28;20444;-43
2022/03/24 02:37:31;;;;;;;69.35;48.72;;;4.40;84.00;;;;;;5010262;28;20022;-44
2022/03/24 02:40:00;;;;;;;66.10;49.03;;;4.40;83.90;;;;;;5009759;28;20054;-43
2022/03/24 02:42:27;;;;;;;71.60;48.40;;;4.30;83.90;;;;;;4976329;28;20034;-45
2022/03/24 02:45:16;;;;;;;68.78;47.83;;;4.30;84.00;;;;;;5009822;28;20065;-43
2022/03/24 02:47:44;;;;;;;65.75;46.33;;;4.30;83.90;;;;;;5004480;28;20034;-43
2022/03/24 02:50:13;;;;;;;64.35;45.70;;;4.30;83.80;;;;;;4995176;28;20457;-43
2022/03/24 02:52:41;;;;;;;69.60;48.33;;;4.30;84.10;;;;;;5004853;28;20321;-44
2022/03/24 02:55:10;;;;;;;64.65;44.50;;;4.20;84.10;;;;;;5007139;28;20073;-44
2022/03/24 02:57:36;;;;;;;69.90;46.45;;;4.20;84.10;;;;;;5012133;28;20075;-44
2022/03/24 03:00:05;;;;;;;67.68;47.50;;;4.20;84.10;;;;;;5013301;28;20017;-43
2022/03/24 03:02:31;;;;;;;65.80;48.53;;;4.20;84.00;;;;;;5011207;28;20750;-44
2022/03/24 03:04:57;;;;;;;69.40;45.70;;;4.20;83.80;;;;;;5012781;28;20033;-43
2022/03/24 03:07:24;;;;;;;77.90;52.25;;;4.20;84.10;;;;;;5012583;28;20092;-45
2022/03/24 03:09:51;;;;;;;75.50;52.92;;;4.20;84.10;;;;;;5013919;28;20489;-44
2022/03/24 03:12:17;;;;;;;66.20;45.83;;;4.10;84.00;;;;;;5012387;28;20091;-43
2022/03/24 03:14:56;;;;;;;67.45;46.13;;;4.10;84.00;;;;;;5013510;28;20336;-43
2022/03/24 03:17:22;;;;;;;71.97;48.75;;;4.10;84.00;;;;;;5011635;28;20064;-44
2022/03/24 03:19:48;;;;;;;69.40;48.30;;;4.10;84.20;;;;;;5011131;28;20033;-43
2022/03/24 03:22:15;;;;;;;72.45;49.00;;;4.10;84.20;;;;;;5009999;28;20026;-43
2022/03/24 03:24:44;;;;;;;73.13;48.85;;;4.00;84.20;;;;;;5011498;28;20061;-44
2022/03/24 03:27:13;;;;;;;74.63;49.95;;;4.00;84.30;;;;;;4994120;28;20061;-43
2022/03/24 03:29:41;;;;;;;72.88;47.20;;;4.00;84.40;;;;;;5011217;28;20029;-43
2022/03/24 03:32:10;;;;;;;66.38;45.22;;;4.00;84.30;;;;;;4994169;28;20150;-42
2022/03/24 03:34:38;;;;;;;70.78;47.38;;;4.00;84.30;;;;;;5011739;28;20038;-44
2022/03/24 03:37:12;;;;;;;67.15;48.00;;;4.00;84.30;;;;;;4994225;28;20052;-45
2022/03/24 03:39:39;;;;;;;70.20;47.78;;;3.90;84.50;;;;;;5011586;28;20131;-43
2022/03/24 03:42:09;;;;;;;71.65;46.35;;;3.90;84.40;;;;;;5011812;28;20050;-43
2022/03/24 03:44:40;;;;;;;72.72;50.53;;;3.90;84.40;;;;;;5011543;28;20119;-43
2022/03/24 03:47:07;;;;;;;69.78;46.50;;;3.90;84.40;;;;;;5011757;28;20204;-43
2022/03/24 03:49:35;;;;;;;69.25;46.47;;;3.90;84.30;;;;;;5011698;28;20026;-43
2022/03/24 03:52:04;;;;;;;70.00;46.65;;;3.90;84.40;;;;;;5011571;28;20030;-44
2022/03/24 03:54:32;;;;;;;67.50;46.80;;;3.80;84.40;;;;;;5011136;28;20033;-43
2022/03/24 03:57:01;;;;;;;70.40;46.80;;;3.80;84.50;;;;;;5011749;28;20033;-42
2022/03/24 03:59:29;;;;;;;75.18;49.55;;;3.80;84.80;;;;;;5011727;28;20032;-44
2022/03/24 04:01:59;;;;;;;77.18;48.28;;;3.80;84.80;;;;;;5011437;28;20038;-43
2022/03/24 04:04:27;;;;;;;;;;;3.80;84.90;;;;;;5012147;28;20120;-44
2022/03/24 04:06:53;;;;;;;72.50;48.15;;;3.90;85.00;;;;;;5011589;28;20462;-42
2022/03/24 04:09:21;;;;;;;73.15;50.13;;;3.80;85.10;;;;;;5010780;28;20454;-42
2022/03/24 04:11:49;;;;;;;70.60;46.65;;;3.80;85.00;;;;;;5010743;28;20037;-46
2022/03/24 04:14:16;;;;;;;67.03;45.05;;;3.80;85.00;;;;;;5009934;28;20033;-42
2022/03/24 04:16:43;;;;;;;60.58;44.25;;;3.80;84.80;;;;;;4945625;28;1905434;-43
2022/03/24 04:19:12;;;;;;;61.95;42.42;;;3.80;84.90;;;;;;5011815;28;20026;-43
2022/03/24 04:21:39;;;;;;;61.08;41.78;;;3.80;84.70;;;;;;5012541;28;20474;-43
2022/03/24 04:24:08;;;;;;;63.92;42.22;;;3.70;84.70;;;;;;5011401;28;20049;-46
2022/03/24 04:26:38;;;;;;;65.43;43.10;;;3.70;84.70;;;;;;5012548;28;20026;-46
2022/03/24 04:29:05;;;;;;;57.13;39.67;;;3.70;84.70;;;;;;5011885;28;20284;-43
2022/03/24 04:31:32;;;;;;;57.13;40.15;;;3.60;84.80;;;;;;5012052;28;20588;-43
2022/03/24 04:33:59;;;;;;;54.25;36.53;;;3.60;84.80;;;;;;5010886;28;20045;-43
2022/03/24 04:36:26;;;;;;;56.30;37.88;;;3.60;84.80;;;;;;5012152;28;20113;-42
2022/03/24 04:38:53;;;;;;;50.30;34.83;;;3.60;84.80;;;;;;5010971;28;20034;-43
2022/03/24 04:41:23;;;;;;;52.47;35.53;;;3.50;84.80;;;;;;5011089;28;20060;-43
2022/03/24 04:43:51;;;;;;;51.92;36.03;;;3.50;84.80;;;;;;5012148;28;20057;-43
2022/03/24 04:46:18;;;;;;;50.83;35.72;;;3.50;84.90;;;;;;5011951;28;20026;-42
2022/03/24 04:48:44;;;;;;;48.85;34.33;;;3.50;84.90;;;;;;5011717;28;20030;-42
2022/03/24 04:51:11;;;;;;;45.22;31.60;;;3.50;85.10;;;;;;5010244;28;20053;-42
2022/03/24 04:53:39;;;;;;;43.40;29.52;;;3.50;85.30;;;;;;5011277;28;20033;-43
2022/03/24 04:56:06;;;;;;;45.33;31.60;;;3.50;85.20;;;;;;5011447;28;20459;-42
2022/03/24 04:58:35;;;;;;;41.10;29.52;;;3.50;85.20;;;;;;5010780;28;20030;-43
2022/03/24 05:01:02;;;;;;;44.38;29.45;;;3.50;85.10;;;;;;5010983;28;20030;-43
2022/03/24 05:03:29;;;;;;;41.05;30.02;;;3.50;85.00;;;;;;5011569;28;20014;-42
2022/03/24 05:05:59;;;;;;;46.50;32.60;;;3.50;85.10;;;;;;5011569;28;20029;-43
2022/03/24 05:08:26;;;;;;;49.30;33.95;;;3.50;85.20;;;;;;5010389;28;20030;-43
2022/03/24 05:10:55;;;;;;;43.92;31.08;;;3.50;85.20;;;;;;5011543;28;20041;-43
2022/03/24 05:13:24;;;;;;;43.35;29.92;;;3.40;85.10;;;;;;5011604;28;20034;-42
2022/03/24 05:15:51;;;;;;;47.72;32.03;;;3.40;85.10;;;;;;5010159;28;20053;-44
2022/03/24 05:18:18;;;;;;;44.33;31.60;;;3.40;85.00;;;;;;5011142;28;20522;-43
2022/03/24 05:20:44;;;;;;;45.03;32.25;;;3.40;85.20;;;;;;5011512;28;20026;-43
2022/03/24 05:23:12;;;;;;;53.20;35.22;;;3.40;85.30;;;;;;5010022;28;20429;-44
2022/03/24 05:25:40;;;;;;;56.65;37.22;;;3.40;85.40;;;;;;5011506;28;20355;-42
2022/03/24 05:28:07;;;;;;;55.67;38.45;;;3.40;85.50;;;;;;5010954;28;20036;-43
2022/03/24 05:30:34;;;;;;;54.03;37.38;;;3.50;85.60;;;;;;5009952;28;20046;-42
2022/03/24 05:33:03;;;;;;;53.15;36.15;;;3.50;85.60;;;;;;5011398;28;20040;-46
2022/03/24 05:35:35;;;;;;;49.17;34.80;;;3.50;85.50;;;;;;5010464;28;20144;-42
2022/03/24 05:38:02;;;;;;;55.83;35.28;;;3.40;85.40;;;;;;5010732;28;20037;-42
2022/03/24 05:40:30;;;;;;;51.00;33.60;;;3.50;85.50;;;;;;5008915;28;20029;-43
2022/03/24 05:42:58;;;;;;;61.72;38.38;;;3.50;85.50;;;;;;5009989;28;20080;-43
2022/03/24 05:45:24;;;;;;;57.75;38.90;;;3.50;85.50;;;;;;5010605;28;20088;-42
2022/03/24 05:47:52;;;;;;;65.28;41.35;;;3.50;85.60;;;;;;4993066;28;20128;-42
2022/03/24 05:50:19;;;;;;;69.13;44.58;;;3.50;85.70;;;;;;5010074;28;21656;-42
2022/03/24 05:52:51;;;;;;;61.58;42.33;;;3.60;85.90;;;;;;5010393;28;20044;-42
2022/03/24 05:55:17;;;;;;;58.13;39.10;;;3.70;85.90;;;;;;5009555;28;20037;-43
2022/03/24 05:57:45;;;;;;;58.78;40.03;;;3.70;85.60;;;;;;5010070;28;20462;-42
2022/03/24 06:00:13;;;;;;;58.95;39.60;;;3.80;85.60;;;;;;5007831;28;20034;-42
2022/03/24 06:02:43;;;;;;;60.17;41.72;;;3.80;85.70;;;;;;5007965;28;20061;-42
2022/03/24 06:05:20;;;;;;;66.57;44.38;;;3.90;85.70;;;;;;5008892;28;20030;-42
2022/03/24 06:07:47;;;;;;;72.65;47.30;;;3.90;85.80;;;;;;5008734;28;20652;-44
2022/03/24 06:10:12;;;;;;;81.57;52.05;;;4.00;86.10;;;;;;5007614;28;20097;-42
2022/03/24 06:12:40;;;;;;;102.05;57.88;;;4.10;86.40;;;;;;5008247;28;20030;-44
2022/03/24 06:15:07;;;;;;;231.13;68.30;;;4.20;86.40;;;;;;5009465;28;20057;-42
2022/03/24 06:17:36;;;;;;;90.47;54.20;;;4.20;86.80;;;;;;5009311;28;20069;-42
2022/03/24 06:20:08;;;;;;;82.90;53.10;;;4.30;86.90;;;;;;4990867;28;20033;-42
2022/03/24 06:22:52;;;;;;;84.75;54.22;;;4.40;87.10;;;;;;5008066;28;20336;-42
2022/03/24 06:25:20;;;;;;;80.25;51.53;;;4.50;87.10;;;;;;5009507;28;20125;-43
2022/03/24 06:27:49;;;;;;;83.78;54.00;;;4.50;87.00;;;;;;5009718;28;20032;-43
2022/03/24 06:30:17;;;;;;;81.80;52.67;;;4.60;87.00;;;;;;5009429;28;20026;-43
2022/03/24 06:32:45;;;;;;;72.15;48.40;;;4.70;86.90;;;;;;5010043;28;20305;-44
2022/03/24 06:35:11;;;;;;;75.38;49.38;;;4.80;87.00;;;;;;5008898;28;20107;-42
2022/03/24 06:37:48;;;;;;;74.97;48.55;;;4.90;86.90;;;;;;4990966;28;20068;-43
2022/03/24 06:40:26;;;;;;;68.10;47.95;;;4.90;86.80;;;;;;5007949;28;20026;-46
2022/03/24 06:42:52;;;;;;;71.07;48.03;;;5.00;86.70;;;;;;5008732;28;20034;-42
2022/03/24 06:45:20;;;;;;;69.60;47.38;;;5.10;86.70;;;;;;5009471;28;20038;-42
2022/03/24 06:47:51;;;;;;;66.85;45.83;;;5.20;86.80;;;;;;5007206;28;20029;-42
2022/03/24 06:50:18;;;;;;;68.22;46.95;;;5.30;86.80;;;;;;5005337;28;20068;-43
2022/03/24 06:52:44;;;;;;;65.82;46.47;;;5.50;86.80;;;;;;5007935;28;20054;-44
2022/03/24 06:55:13;;;;;;;64.70;44.83;;;5.70;86.90;;;;;;5006958;28;20038;-43
2022/03/24 06:57:41;;;;;;;66.63;45.35;;;5.90;87.00;;;;;;5009062;28;20105;-42
2022/03/24 07:00:12;;;;;;;66.30;42.95;;;6.10;86.90;;;;;;5008020;28;20083;-43
2022/03/24 07:02:43;;;;;;;61.25;45.58;;;6.20;86.80;;;;;;5008133;28;20116;-44
2022/03/24 07:05:11;;;;;;;68.78;46.85;;;6.40;86.40;;;;;;5003021;28;20112;-45
2022/03/24 07:08:26;;;;;;;;;;;;;;;;;;;;;
2022/03/24 07:10:55;;;;;;;69.13;48.40;;;6.70;86.40;;;;;;5000217;28;20049;-43
2022/03/24 07:13:21;;;;;;;63.30;44.75;;;6.90;86.30;;;;;;4992218;28;20041;-43
2022/03/24 07:15:47;;;;;;;69.63;48.33;;;7.00;86.30;;;;;;5008334;28;20137;-43
2022/03/24 07:18:13;;;;;;;66.88;47.78;;;7.20;86.30;;;;;;5009474;28;20037;-43
2022/03/24 07:21:20;;;;;;;;;;;;;;;;;;;;;
2022/03/24 07:23:46;;;;;;;71.03;49.70;;;7.50;85.70;;;;;;5009121;28;20030;-42
2022/03/24 07:26:16;;;;;;;69.45;48.83;;;7.80;85.40;;;;;;5006671;28;20708;-43
2022/03/24 07:28:44;;;;;;;66.18;46.53;;;7.90;84.50;;;;;;5007012;28;20524;-43
2022/03/24 07:31:19;;;;;;;59.92;44.58;;;8.00;83.00;;;;;;5005573;28;20045;-43
2022/03/24 07:33:47;;;;;;;64.82;45.13;;;8.20;81.80;;;;;;4995708;28;20043;-44
2022/03/24 07:36:14;;;;;;;62.58;43.67;;;8.40;81.50;;;;;;4958687;28;20509;-43
2022/03/24 07:38:41;;;;;;;63.42;46.30;;;8.60;81.00;;;;;;5007059;28;20427;-44
2022/03/24 07:41:09;;;;;;;57.75;42.28;;;8.90;80.10;;;;;;5011874;28;20465;-44
2022/03/24 07:43:34;;;;;;;50.13;39.92;;;9.10;79.00;;;;;;5010486;28;20061;-43
2022/03/24 07:46:05;;;;;;;60.17;41.47;;;9.40;77.80;;;;;;5011701;28;20050;-44
2022/03/24 07:48:31;;;;;;;53.13;40.97;;;9.80;75.90;;;;;;5013016;28;20505;-43
2022/03/24 07:51:01;;;;;;;46.00;38.80;;;10.30;75.30;;;;;;5009423;28;20080;-44
2022/03/24 07:54:02;;;;;;;52.17;38.42;;;10.70;73.40;;;;;;5010473;28;20038;-44
2022/03/24 07:56:30;;;;;;;47.40;36.60;;;11.10;69.80;;;;;;5011163;28;20026;-44
2022/03/24 07:59:00;;;;;;;43.78;36.92;;;11.70;70.60;;;;;;4987960;28;20045;-45
2022/03/24 08:01:45;;;;;;;45.17;36.78;;;12.10;68.00;;;;;;4991148;28;20360;-47
2022/03/24 08:04:13;;;;;;;49.33;35.42;;;12.50;67.30;;;;;;5007857;28;20041;-44
2022/03/24 08:06:42;;;;;;;46.40;38.22;;;12.70;63.80;;;;;;5009530;28;20052;-44
2022/03/24 08:09:10;;;;;;;46.20;38.80;;;12.90;63.80;;;;;;5009462;28;20038;-45
2022/03/24 08:11:37;;;;;;;46.97;35.38;;;12.90;62.20;;;;;;5002893;28;20045;-45
2022/03/24 08:14:04;;;;;;;48.15;36.38;;;13.00;61.70;;;;;;5002265;28;20030;-44
2022/03/24 08:16:31;;;;;;;42.03;36.10;;;13.30;60.40;;;;;;5007752;28;20212;-42
2022/03/24 08:18:57;;;;;;;39.40;34.58;;;13.50;61.60;;;;;;5008395;28;20038;-45
2022/03/24 08:21:25;;;;;;;40.28;35.88;;;13.90;58.80;;;;;;5007487;28;20125;-42
2022/03/24 08:23:52;;;;;;;40.15;35.83;;;14.20;58.30;;;;;;5006323;28;20026;-45
2022/03/24 08:26:19;;;;;;;40.47;34.33;;;14.60;58.10;;;;;;5008132;28;20037;-43
2022/03/24 08:28:44;;;;;;;40.00;33.15;;;14.90;57.70;;;;;;5008043;28;20053;-48
2022/03/24 08:31:12;;;;;;;41.22;35.58;;;15.30;55.90;;;;;;5007970;28;20490;-49
2022/03/24 08:33:44;;;;;;;42.10;36.35;;;15.30;54.80;;;;;;5007395;28;20461;-44
2022/03/24 08:36:12;;;;;;;40.42;34.70;;;15.20;54.20;;;;;;5004303;28;20455;-44
2022/03/24 08:38:39;;;;;;;40.05;35.72;;;15.50;54.30;;;;;;5006451;28;20026;-43
2022/03/24 08:41:08;;;;;;;39.35;35.15;;;15.50;54.40;;;;;;5005886;28;20019;-43
2022/03/24 08:43:36;;;;;;;39.33;34.78;;;15.50;54.00;;;;;;5007920;28;20076;-42
2022/03/24 08:46:03;;;;;;;42.60;35.08;;;15.70;53.90;;;;;;5006606;28;20026;-42
2022/03/24 08:48:30;;;;;;;36.88;32.85;;;15.90;53.60;;;;;;5006071;28;20698;-42
2022/03/24 08:50:59;;;;;;;38.55;33.08;;;15.90;50.80;;;;;;5007945;28;20087;-45
2022/03/24 08:53:26;;;;;;;36.80;32.83;;;15.90;50.90;;;;;;5006477;28;20026;-43
2022/03/24 08:55:55;;;;;;;37.65;33.17;;;16.00;52.50;;;;;;5008300;28;20091;-43
2022/03/24 08:58:24;;;;;;;41.97;34.35;;;16.30;51.70;;;;;;5006157;28;20093;-44
2022/03/24 09:00:51;;;;;;;38.23;29.77;;;16.40;50.40;;;;;;5008167;28;20117;-43
2022/03/24 09:03:17;;;;;;;38.78;33.13;;;16.30;48.70;;;;;;5007369;28;20034;-43
2022/03/24 09:05:44;;;;;;;36.60;31.65;;;16.50;46.90;;;;;;5006763;28;20042;-43
2022/03/24 09:08:12;;;;;;;39.38;34.28;;;16.60;48.00;;;;;;5007649;28;20083;-45
2022/03/24 09:10:43;;;;;;;36.90;32.88;;;16.60;48.60;;;;;;5007362;28;20034;-43
2022/03/24 09:13:11;;;;;;;45.13;35.42;;;16.60;50.30;;;;;;5007162;28;20037;-45
2022/03/24 09:15:37;;;;;;;38.78;33.85;;;16.80;48.00;;;;;;5005898;28;20036;-43
2022/03/24 09:18:04;;;;;;;36.47;32.63;;;16.50;51.80;;;;;;5008766;28;20451;-43
2022/03/24 09:20:33;;;;;;;37.47;32.22;;;16.70;50.70;;;;;;5006324;28;20026;-44
2022/03/24 09:23:01;;;;;;;46.58;36.33;;;16.90;49.90;;;;;;5007116;28;20025;-50
2022/03/24 09:25:28;;;;;;;34.63;31.13;;;17.00;47.50;;;;;;5007408;28;20046;-43
2022/03/24 09:27:55;;;;;;;37.83;33.75;;;17.20;48.10;;;;;;4989932;28;20053;-48
2022/03/24 09:30:23;;;;;;;35.85;31.77;;;17.10;49.40;;;;;;5007705;28;20029;-44
2022/03/24 09:32:51;;;;;;;37.78;33.25;;;17.00;46.60;;;;;;5007188;28;20042;-46
2022/03/24 09:35:19;;;;;;;36.33;32.22;;;17.00;47.00;;;;;;5006483;28;20041;-44
2022/03/24 09:37:46;;;;;;;36.53;32.60;;;16.90;47.70;;;;;;5006834;28;20033;-44
2022/03/24 09:40:14;;;;;;;34.83;31.05;;;17.20;48.60;;;;;;5007207;28;20026;-47
2022/03/24 09:42:41;;;;;;;34.65;31.05;;;17.40;47.90;;;;;;5006677;28;20080;-43
2022/03/24 09:45:14;;;;;;;35.65;31.80;;;17.70;46.50;;;;;;5006094;28;20050;-42
2022/03/24 09:47:40;;;;;;;37.88;31.48;;;17.70;47.80;;;;;;5005710;28;20072;-45
2022/03/24 09:50:10;;;;;;;34.22;30.23;;;17.80;47.10;;;;;;5005166;28;20030;-44
2022/03/24 09:52:37;;;;;;;34.95;31.30;;;17.80;43.50;;;;;;5006435;28;20034;-43
2022/03/24 09:55:16;;;;;;;34.78;31.25;;;17.60;45.80;;;;;;5006966;28;20038;-44
2022/03/24 09:57:44;;;;;;;;;;;18.00;44.90;;;;;;5007776;28;20076;-43
2022/03/24 10:00:11;;;;;;;33.78;29.20;;;18.20;43.90;;;;;;5006429;28;20403;-45
2022/03/24 10:02:37;;;;;;;34.10;30.55;;;18.30;46.00;;;;;;5007313;28;20026;-44
2022/03/24 10:05:08;;;;;;;32.03;28.77;;;18.10;44.80;;;;;;5006518;28;20064;-44
2022/03/24 10:07:48;;;;;;;32.42;28.65;;;17.90;43.30;;;;;;5005229;28;20030;-43
2022/03/24 10:10:27;;;;;;;37.25;33.10;;;17.60;43.20;;;;;;4974317;28;20061;-42
2022/03/24 10:12:55;;;;;;;41.05;36.67;;;17.70;46.40;;;;;;5005743;28;20038;-42
2022/03/24 10:15:26;;;;;;;39.72;35.38;;;17.90;48.40;;;;;;5006597;28;20053;-42
2022/03/24 10:17:56;;;;;;;41.50;35.42;;;17.90;48.90;;;;;;5006463;28;20041;-44
2022/03/24 10:20:30;;;;;;;40.33;36.17;;;18.00;48.20;;;;;;4989249;28;20034;-43
2022/03/24 10:23:05;;;;;;;44.33;39.63;;;18.20;47.70;;;;;;5006880;28;20145;-43
2022/03/24 10:25:52;;;;;;;40.95;35.85;;;18.00;48.30;;;;;;4988810;28;20104;-43
2022/03/24 10:28:27;;;;;;;44.97;36.30;;;17.90;49.00;;;;;;5005961;28;20022;-42
2022/03/24 10:30:59;;;;;;;39.95;35.75;;;17.70;49.60;;;;;;5005231;28;20561;-45
2022/03/24 10:33:47;;;;;;;40.75;36.78;;;17.80;49.50;;;;;;4989532;28;20335;-44
2022/03/24 10:36:32;;;;;;;39.85;35.60;;;17.40;50.00;;;;;;5004297;28;20034;-43
2022/03/24 10:39:04;;;;;;;41.63;36.75;;;17.00;49.60;;;;;;5006150;28;20026;-43
2022/03/24 10:41:37;;;;;;;41.13;36.50;;;17.00;50.60;;;;;;5006265;28;20034;-46
2022/03/24 10:44:12;;;;;;;40.88;36.55;;;16.80;51.30;;;;;;5005602;28;20372;-45
2022/03/24 10:46:42;;;;;;;42.35;38.03;;;16.80;52.40;;;;;;5005877;28;20030;-43
2022/03/24 10:49:20;;;;;;;42.97;36.95;;;16.70;51.50;;;;;;5005357;28;20053;-44
2022/03/24 10:51:48;;;;;;;39.33;34.75;;;16.70;50.10;;;;;;5000072;28;20121;-43
2022/03/24 10:54:33;;;;;;;37.70;33.70;;;16.80;51.70;;;;;;4987543;28;20128;-42
2022/03/24 10:57:12;;;;;;;43.42;36.20;;;16.90;51.50;;;;;;5006133;28;20112;-45
2022/03/24 10:59:58;;;;;;;47.13;36.38;;;16.90;51.00;;;;;;5005740;28;20041;-46
2022/03/24 11:02:31;;;;;;;44.78;34.97;;;17.00;51.50;;;;;;5005318;28;20088;-42
2022/03/24 11:05:00;;;;;;;37.28;33.13;;;16.90;49.40;;;;;;5004702;28;20766;-43
2022/03/24 11:07:26;;;;;;;44.00;35.10;;;16.70;48.90;;;;;;5004548;28;20108;-43
2022/03/24 11:09:53;;;;;;;41.00;35.10;;;16.70;50.10;;;;;;5006203;28;20062;-43
2022/03/24 11:12:28;;;;;;;44.42;35.20;;;16.70;50.50;;;;;;5006996;28;20088;-44
2022/03/24 11:14:59;;;;;;;40.33;35.60;;;16.70;49.40;;;;;;5009005;28;20030;-43
2022/03/24 11:17:26;;;;;;;38.50;34.35;;;16.60;49.40;;;;;;4992963;28;20136;-44
2022/03/24 11:20:12;;;;;;;42.88;35.20;;;16.50;48.70;;;;;;4992516;28;20034;-42
2022/03/24 11:23:01;;;;;;;37.83;33.83;;;16.60;49.30;;;;;;5007034;28;20490;-43
2022/03/24 11:25:39;;;;;;;44.78;35.83;;;16.90;47.90;;;;;;5009003;28;20042;-47
2022/03/24 11:28:11;;;;;;;40.17;35.10;;;16.70;48.20;;;;;;5009625;28;20052;-43
2022/03/24 11:30:40;;;;;;;40.35;36.05;;;16.50;47.10;;;;;;5009141;28;20062;-46
2022/03/24 11:33:07;;;;;;;40.15;35.80;;;16.30;47.70;;;;;;4992794;28;20037;-44
2022/03/24 11:35:36;;;;;;;42.20;36.38;;;16.00;48.10;;;;;;5009327;28;20033;-43
2022/03/24 11:38:03;;;;;;;48.53;36.03;;;16.10;48.10;;;;;;5008322;28;20100;-43
2022/03/24 11:40:32;;;;;;;42.08;36.10;;;16.00;47.80;;;;;;4992210;28;20368;-45
2022/03/24 11:43:11;;;;;;;;;;;16.10;49.10;;;;;;5009398;28;20026;-45
2022/03/24 11:46:04;;;;;;;44.58;36.10;;;16.10;47.70;;;;;;5008842;28;19913;-44
2022/03/24 11:48:48;;;;;;;41.45;33.95;;;16.20;46.30;;;;;;5011453;28;20061;-43
2022/03/24 11:51:23;;;;;;;42.72;34.63;;;16.10;46.70;;;;;;5010022;28;20451;-44
2022/03/24 11:54:24;;;;;;;38.47;34.20;;;16.20;48.20;;;;;;5009252;28;20125;-45
2022/03/24 11:57:31;;;;;;;37.78;33.28;;;16.40;47.80;;;;;;4994368;28;20120;-43
2022/03/24 12:00:15;;;;;;;40.38;35.28;;;16.40;46.40;;;;;;5011487;28;20025;-43
2022/03/24 12:03:01;;;;;;;41.13;33.80;;;16.40;47.10;;;;;;5010897;28;20036;-44
2022/03/24 12:05:48;;;;;;;42.55;34.70;;;16.50;47.80;;;;;;5020978;28;20030;-43
2022/03/24 12:08:30;;;;;;;46.35;32.55;;;16.50;46.30;;;;;;5009279;28;20065;-45
2022/03/24 12:10:58;;;;;;;42.45;33.00;;;16.40;45.10;;;;;;5009405;28;20030;-45
2022/03/24 12:13:29;;;;;;;35.75;31.15;;;16.40;45.60;;;;;;5010675;28;20064;-44
2022/03/24 12:16:27;;;;;;;34.03;29.65;;;16.30;46.00;;;;;;5010094;28;20050;-43
2022/03/24 12:18:53;;;;;;;35.50;30.30;;;16.20;44.00;;;;;;4996897;28;20517;-45
2022/03/24 12:21:38;;;;;;;36.78;28.27;;;16.40;44.40;;;;;;5010729;28;20097;-45
2022/03/24 12:24:18;;;;;;;33.22;26.30;;;16.40;42.40;;;;;;5010592;28;20025;-43
2022/03/24 12:26:56;;;;;;;;;;;16.40;44.20;;;;;;5010155;28;20332;-43
2022/03/24 12:29:27;;;;;;;31.70;25.50;;;16.40;44.80;;;;;;5010011;28;19909;-49
2022/03/24 12:32:10;;;;;;;31.42;26.45;;;16.50;45.50;;;;;;5011327;28;20065;-45
2022/03/24 12:34:38;;;;;;;34.15;28.13;;;16.50;45.50;;;;;;5011506;28;20053;-44
2022/03/24 12:37:07;;;;;;;33.08;27.98;;;16.60;47.20;;;;;;5010384;28;20049;-44
2022/03/24 12:39:38;;;;;;;34.42;27.63;;;16.70;46.00;;;;;;5010200;28;20037;-43
2022/03/24 12:42:16;;;;;;;33.33;25.00;;;16.90;48.20;;;;;;4992267;28;20030;-43
2022/03/24 12:44:58;;;;;;;32.97;27.38;;;16.90;42.90;;;;;;5009715;28;20022;-43
2022/03/24 12:47:47;;;;;;;33.00;25.08;;;16.80;45.20;;;;;;5009657;28;20471;-44
2022/03/24 12:50:18;;;;;;;33.50;25.52;;;16.90;43.90;;;;;;5009772;28;20117;-45
2022/03/24 12:53:10;;;;;;;27.30;24.17;;;16.90;44.20;;;;;;5010069;28;20038;-43
2022/03/24 12:55:42;;;;;;;31.42;25.20;;;17.00;45.00;;;;;;5008847;28;20523;-45